sensor_id;sensor_type;location;lat;lon;timestamp;pressure;altitude;pressure_sealevel;temperature;humidity
23166;BME280;11751;42.700;24.170;2022-11-15T00:00:26;94577.59;;;3.16;nan
23166;BME280;11751;42.700;24.170;2022-11-15T00:02:54;94570.78;;;3.11;nan
23166;BME280;11751;42.700;24.170;2022-11-15T00:05:20;94556.66;;;2.98;nan
23166;BME280;11751;42.700;24.170;2022-11-15T00:07:46;94564.97;;;3.04;nan
23166;BME280;11751;42.700;24.170;2022-11-15T00:10:11;94562.44;;;2.95;nan
23166;BME280;11751;42.700;24.170;2022-11-15T00:12:37;94554.63;;;2.93;nan
23166;BME280;11751;42.700;24.170;2022-11-15T00:15:02;94551.31;;;2.84;nan
23166;BME280;11751;42.700;24.170;2022-11-15T00:17:28;94541.78;;;2.85;nan
23166;BME280;11751;42.700;24.170;2022-11-15T00:19:53;94550.78;;;2.80;nan
23166;BME280;11751;42.700;24.170;2022-11-15T00:22:18;94548.03;;;2.80;nan
23166;BME280;11751;42.700;24.170;2022-11-15T00:24:44;94544.28;;;2.83;nan
23166;BME280;11751;42.700;24.170;2022-11-15T00:27:09;94540.00;;;2.82;nan
23166;BME280;11751;42.700;24.170;2022-11-15T00:29:35;94527.19;;;2.79;nan
23166;BME280;11751;42.700;24.170;2022-11-15T00:32:02;94533.53;;;2.96;nan
23166;BME280;11751;42.700;24.170;2022-11-15T00:34:28;94532.03;;;3.00;nan
23166;BME280;11751;42.700;24.170;2022-11-15T00:36:53;94534.53;;;2.98;nan
23166;BME280;11751;42.700;24.170;2022-11-15T00:39:18;94530.50;;;2.94;nan
23166;BME280;11751;42.700;24.170;2022-11-15T00:41:44;94520.44;;;2.96;nan
23166;BME280;11751;42.700;24.170;2022-11-15T00:44:09;94520.91;;;2.89;nan
23166;BME280;11751;42.700;24.170;2022-11-15T00:46:35;94527.00;;;3.04;nan
23166;BME280;11751;42.700;24.170;2022-11-15T00:49:00;94527.75;;;3.05;nan
23166;BME280;11751;42.700;24.170;2022-11-15T00:51:25;94519.75;;;3.12;nan
23166;BME280;11751;42.700;24.170;2022-11-15T00:53:51;94516.97;;;3.12;nan
23166;BME280;11751;42.700;24.170;2022-11-15T00:56:16;94513.94;;;3.10;nan
23166;BME280;11751;42.700;24.170;2022-11-15T00:58:42;94510.19;;;3.08;nan
23166;BME280;11751;42.700;24.170;2022-11-15T01:01:12;94517.47;;;3.11;nan
23166;BME280;11751;42.700;24.170;2022-11-15T01:03:39;94514.44;;;3.09;nan
23166;BME280;11751;42.700;24.170;2022-11-15T01:06:05;94513.91;;;2.94;nan
23166;BME280;11751;42.700;24.170;2022-11-15T01:08:31;94512.13;;;2.91;nan
23166;BME280;11751;42.700;24.170;2022-11-15T01:11:02;94516.13;;;2.79;nan
23166;BME280;11751;42.700;24.170;2022-11-15T01:13:30;94500.28;;;2.79;nan
23166;BME280;11751;42.700;24.170;2022-11-15T01:15:56;94503.22;;;2.65;nan
23166;BME280;11751;42.700;24.170;2022-11-15T01:18:21;94498.63;;;2.51;nan
23166;BME280;11751;42.700;24.170;2022-11-15T01:20:47;94496.09;;;2.48;nan
23166;BME280;11751;42.700;24.170;2022-11-15T01:23:12;94495.06;;;2.40;nan
23166;BME280;11751;42.700;24.170;2022-11-15T01:25:37;94514.13;;;2.38;nan
23166;BME280;11751;42.700;24.170;2022-11-15T01:28:03;94510.75;;;2.17;nan
23166;BME280;11751;42.700;24.170;2022-11-15T01:30:28;94505.94;;;2.12;nan
23166;BME280;11751;42.700;24.170;2022-11-15T01:32:54;94511.53;;;2.23;nan
23166;BME280;11751;42.700;24.170;2022-11-15T01:35:19;94509.53;;;2.18;nan
23166;BME280;11751;42.700;24.170;2022-11-15T01:37:46;94511.34;;;2.32;nan
23166;BME280;11751;42.700;24.170;2022-11-15T01:40:11;94520.63;;;2.29;nan
23166;BME280;11751;42.700;24.170;2022-11-15T01:42:36;94519.94;;;2.40;nan
23166;BME280;11751;42.700;24.170;2022-11-15T01:45:04;94523.91;;;2.33;nan
23166;BME280;11751;42.700;24.170;2022-11-15T01:47:42;94521.88;;;2.28;nan
23166;BME280;11751;42.700;24.170;2022-11-15T01:50:11;94518.03;;;2.15;nan
23166;BME280;11751;42.700;24.170;2022-11-15T01:52:39;94520.28;;;2.16;nan
23166;BME280;11751;42.700;24.170;2022-11-15T01:55:21;94524.06;;;2.19;nan
23166;BME280;11751;42.700;24.170;2022-11-15T01:57:51;94516.22;;;2.06;nan
23166;BME280;11751;42.700;24.170;2022-11-15T02:00:18;94510.63;;;1.95;nan
23166;BME280;11751;42.700;24.170;2022-11-15T02:02:44;94518.44;;;2.02;nan
23166;BME280;11751;42.700;24.170;2022-11-15T02:05:09;94509.91;;;2.00;nan
23166;BME280;11751;42.700;24.170;2022-11-15T02:07:35;94520.75;;;2.09;nan
23166;BME280;11751;42.700;24.170;2022-11-15T02:10:08;94510.22;;;2.13;nan
23166;BME280;11751;42.700;24.170;2022-11-15T02:12:34;94514.78;;;2.16;nan
23166;BME280;11751;42.700;24.170;2022-11-15T02:15:01;94515.03;;;2.18;nan
23166;BME280;11751;42.700;24.170;2022-11-15T02:22:58;94505.31;;;2.28;nan
23166;BME280;11751;42.700;24.170;2022-11-15T02:25:40;94502.78;;;2.30;nan
23166;BME280;11751;42.700;24.170;2022-11-15T02:33:50;94496.41;;;2.55;nan
23166;BME280;11751;42.700;24.170;2022-11-15T02:39:07;94506.78;;;2.76;nan
23166;BME280;11751;42.700;24.170;2022-11-15T02:45:13;94497.25;;;2.77;nan
23166;BME280;11751;42.700;24.170;2022-11-15T02:47:43;94497.53;;;2.85;nan
23166;BME280;11751;42.700;24.170;2022-11-15T02:50:13;94500.81;;;2.94;nan
23166;BME280;11751;42.700;24.170;2022-11-15T02:52:45;94496.09;;;3.06;nan
23166;BME280;11751;42.700;24.170;2022-11-15T02:55:30;94497.13;;;3.25;nan
23166;BME280;11751;42.700;24.170;2022-11-15T03:00:50;94492.88;;;3.35;nan
23166;BME280;11751;42.700;24.170;2022-11-15T03:11:22;94505.22;;;3.55;nan
23166;BME280;11751;42.700;24.170;2022-11-15T03:16:26;94492.66;;;3.54;nan
23166;BME280;11751;42.700;24.170;2022-11-15T03:18:58;94503.72;;;3.65;nan
23166;BME280;11751;42.700;24.170;2022-11-15T03:21:28;94508.25;;;3.52;nan
23166;BME280;11751;42.700;24.170;2022-11-15T03:23:55;94504.72;;;3.57;nan
23166;BME280;11751;42.700;24.170;2022-11-15T03:26:23;94495.44;;;3.65;nan
23166;BME280;11751;42.700;24.170;2022-11-15T03:29:03;94495.91;;;3.69;nan
23166;BME280;11751;42.700;24.170;2022-11-15T03:31:35;94491.16;;;3.75;nan
23166;BME280;11751;42.700;24.170;2022-11-15T03:34:41;94484.09;;;3.74;nan
23166;BME280;11751;42.700;24.170;2022-11-15T03:37:11;94478.56;;;3.69;nan
23166;BME280;11751;42.700;24.170;2022-11-15T03:39:38;94469.00;;;3.75;nan
23166;BME280;11751;42.700;24.170;2022-11-15T03:45:17;94477.03;;;3.51;nan
23166;BME280;11751;42.700;24.170;2022-11-15T03:47:59;94466.22;;;3.48;nan
23166;BME280;11751;42.700;24.170;2022-11-15T03:50:27;94462.69;;;3.47;nan
23166;BME280;11751;42.700;24.170;2022-11-15T03:52:54;94456.91;;;3.35;nan
23166;BME280;11751;42.700;24.170;2022-11-15T03:55:20;94453.88;;;3.33;nan
23166;BME280;11751;42.700;24.170;2022-11-15T03:57:50;94451.84;;;3.49;nan
23166;BME280;11751;42.700;24.170;2022-11-15T04:00:16;94451.13;;;3.60;nan
23166;BME280;11751;42.700;24.170;2022-11-15T04:02:41;94442.03;;;3.70;nan
23166;BME280;11751;42.700;24.170;2022-11-15T04:05:07;94453.38;;;3.83;nan
23166;BME280;11751;42.700;24.170;2022-11-15T04:07:33;94453.84;;;3.87;nan
23166;BME280;11751;42.700;24.170;2022-11-15T04:09:58;94457.66;;;4.01;nan
23166;BME280;11751;42.700;24.170;2022-11-15T04:12:35;94457.38;;;4.04;nan
23166;BME280;11751;42.700;24.170;2022-11-15T04:15:08;94456.88;;;3.78;nan
23166;BME280;11751;42.700;24.170;2022-11-15T04:17:42;94454.38;;;3.58;nan
23166;BME280;11751;42.700;24.170;2022-11-15T04:22:57;94462.94;;;3.77;nan
23166;BME280;11751;42.700;24.170;2022-11-15T04:25:42;94449.84;;;3.77;nan
23166;BME280;11751;42.700;24.170;2022-11-15T04:28:09;94446.84;;;3.86;nan
23166;BME280;11751;42.700;24.170;2022-11-15T04:30:34;94448.31;;;3.93;nan
23166;BME280;11751;42.700;24.170;2022-11-15T04:33:00;94448.09;;;3.96;nan
23166;BME280;11751;42.700;24.170;2022-11-15T04:35:25;94449.34;;;3.95;nan
23166;BME280;11751;42.700;24.170;2022-11-15T04:37:51;94445.31;;;3.96;nan
23166;BME280;11751;42.700;24.170;2022-11-15T04:40:16;94445.78;;;4.00;nan
23166;BME280;11751;42.700;24.170;2022-11-15T04:42:42;94441.03;;;3.90;nan
23166;BME280;11751;42.700;24.170;2022-11-15T04:45:08;94435.50;;;3.79;nan
23166;BME280;11751;42.700;24.170;2022-11-15T04:47:34;94431.97;;;3.78;nan
23166;BME280;11751;42.700;24.170;2022-11-15T04:50:00;94449.34;;;3.73;nan
23166;BME280;11751;42.700;24.170;2022-11-15T04:52:25;94437.75;;;3.69;nan
23166;BME280;11751;42.700;24.170;2022-11-15T04:54:51;94448.84;;;3.80;nan
23166;BME280;11751;42.700;24.170;2022-11-15T04:57:17;94436.50;;;3.87;nan
23166;BME280;11751;42.700;24.170;2022-11-15T04:59:42;94436.47;;;3.98;nan
23166;BME280;11751;42.700;24.170;2022-11-15T05:02:08;94430.41;;;4.05;nan
23166;BME280;11751;42.700;24.170;2022-11-15T05:04:33;94435.97;;;4.05;nan
23166;BME280;11751;42.700;24.170;2022-11-15T05:06:58;94436.94;;;4.13;nan
23166;BME280;11751;42.700;24.170;2022-11-15T05:09:24;94436.19;;;4.23;nan
23166;BME280;11751;42.700;24.170;2022-11-15T05:11:49;94443.72;;;4.28;nan
23166;BME280;11751;42.700;24.170;2022-11-15T05:14:15;94441.44;;;4.37;nan
23166;BME280;11751;42.700;24.170;2022-11-15T05:16:41;94435.63;;;4.41;nan
23166;BME280;11751;42.700;24.170;2022-11-15T05:19:07;94445.66;;;4.55;nan
23166;BME280;11751;42.700;24.170;2022-11-15T05:21:33;94439.84;;;4.58;nan
23166;BME280;11751;42.700;24.170;2022-11-15T05:23:59;94430.00;;;4.63;nan
23166;BME280;11751;42.700;24.170;2022-11-15T05:26:25;94435.53;;;4.63;nan
23166;BME280;11751;42.700;24.170;2022-11-15T05:28:55;94441.56;;;4.67;nan
23166;BME280;11751;42.700;24.170;2022-11-15T05:31:20;94438.03;;;4.66;nan
23166;BME280;11751;42.700;24.170;2022-11-15T05:33:46;94452.13;;;4.74;nan
23166;BME280;11751;42.700;24.170;2022-11-15T05:36:25;94450.91;;;4.64;nan
23166;BME280;11751;42.700;24.170;2022-11-15T05:38:53;94449.44;;;4.52;nan
23166;BME280;11751;42.700;24.170;2022-11-15T05:41:22;94449.25;;;4.33;nan
23166;BME280;11751;42.700;24.170;2022-11-15T05:43:49;94445.97;;;4.35;nan
23166;BME280;11751;42.700;24.170;2022-11-15T05:46:15;94448.75;;;4.29;nan
23166;BME280;11751;42.700;24.170;2022-11-15T05:48:45;94452.78;;;4.34;nan
23166;BME280;11751;42.700;24.170;2022-11-15T05:51:13;94452.03;;;4.17;nan
23166;BME280;11751;42.700;24.170;2022-11-15T05:53:40;94449.06;;;4.10;nan
23166;BME280;11751;42.700;24.170;2022-11-15T05:56:06;94449.06;;;4.04;nan
23166;BME280;11751;42.700;24.170;2022-11-15T05:58:34;94449.56;;;3.97;nan
23166;BME280;11751;42.700;24.170;2022-11-15T06:01:00;94440.50;;;3.97;nan
23166;BME280;11751;42.700;24.170;2022-11-15T06:03:25;94446.78;;;4.08;nan
23166;BME280;11751;42.700;24.170;2022-11-15T06:05:51;94445.06;;;3.94;nan
23166;BME280;11751;42.700;24.170;2022-11-15T06:08:16;94449.81;;;3.99;nan
23166;BME280;11751;42.700;24.170;2022-11-15T06:10:41;94448.28;;;4.09;nan
23166;BME280;11751;42.700;24.170;2022-11-15T06:13:07;94444.25;;;4.10;nan
23166;BME280;11751;42.700;24.170;2022-11-15T06:15:33;94443.72;;;4.17;nan
23166;BME280;11751;42.700;24.170;2022-11-15T06:18:01;94443.50;;;4.21;nan
23166;BME280;11751;42.700;24.170;2022-11-15T06:20:28;94448.50;;;4.27;nan
23166;BME280;11751;42.700;24.170;2022-11-15T06:22:58;94454.28;;;4.35;nan
23166;BME280;11751;42.700;24.170;2022-11-15T06:25:25;94437.66;;;4.35;nan
23166;BME280;11751;42.700;24.170;2022-11-15T06:27:54;94441.16;;;4.41;nan
23166;BME280;11751;42.700;24.170;2022-11-15T06:30:20;94438.91;;;4.39;nan
23166;BME280;11751;42.700;24.170;2022-11-15T06:32:46;94445.69;;;4.44;nan
23166;BME280;11751;42.700;24.170;2022-11-15T06:35:12;94437.88;;;4.37;nan
23166;BME280;11751;42.700;24.170;2022-11-15T06:39:47;94435.38;;;4.33;100.00
23166;BME280;11751;42.700;24.170;2022-11-15T06:42:13;94437.66;;;4.35;100.00
23166;BME280;11751;42.700;24.170;2022-11-15T06:44:38;94436.63;;;4.38;100.00
23166;BME280;11751;42.700;24.170;2022-11-15T06:47:03;94438.91;;;4.34;100.00
23166;BME280;11751;42.700;24.170;2022-11-15T06:49:29;94438.66;;;4.37;100.00
23166;BME280;11751;42.700;24.170;2022-11-15T06:51:54;94438.66;;;4.37;100.00
23166;BME280;11751;42.700;24.170;2022-11-15T06:54:20;94438.63;;;4.43;100.00
23166;BME280;11751;42.700;24.170;2022-11-15T06:56:46;94447.50;;;4.30;100.00
23166;BME280;11751;42.700;24.170;2022-11-15T06:59:11;94436.16;;;4.34;100.00
23166;BME280;11751;42.700;24.170;2022-11-15T07:01:37;94439.41;;;4.38;100.00
23166;BME280;11751;42.700;24.170;2022-11-15T07:04:02;94442.16;;;4.43;100.00
23166;BME280;11751;42.700;24.170;2022-11-15T07:06:27;94434.06;;;4.51;100.00
23166;BME280;11751;42.700;24.170;2022-11-15T07:08:53;94439.59;;;4.56;100.00
23166;BME280;11751;42.700;24.170;2022-11-15T07:11:18;94440.53;;;4.70;100.00
23166;BME280;11751;42.700;24.170;2022-11-15T07:13:44;94439.53;;;4.73;100.00
23166;BME280;11751;42.700;24.170;2022-11-15T07:16:09;94437.19;;;4.88;100.00
23166;BME280;11751;42.700;24.170;2022-11-15T07:18:39;94436.38;;;4.98;100.00
23166;BME280;11751;42.700;24.170;2022-11-15T07:21:07;94439.47;;;4.84;100.00
23166;BME280;11751;42.700;24.170;2022-11-15T07:23:36;94432.41;;;4.83;100.00
23166;BME280;11751;42.700;24.170;2022-11-15T07:26:01;94437.66;;;4.97;100.00
23166;BME280;11751;42.700;24.170;2022-11-15T07:28:27;94446.13;;;5.10;100.00
23166;BME280;11751;42.700;24.170;2022-11-15T07:30:53;94428.91;;;5.22;100.00
23166;BME280;11751;42.700;24.170;2022-11-15T07:33:18;94427.13;;;5.25;100.00
23166;BME280;11751;42.700;24.170;2022-11-15T07:35:44;94421.97;;;5.40;100.00
23166;BME280;11751;42.700;24.170;2022-11-15T07:38:11;94430.00;;;5.43;100.00
23166;BME280;11751;42.700;24.170;2022-11-15T07:40:37;94423.72;;;5.43;100.00
23166;BME280;11751;42.700;24.170;2022-11-15T07:43:05;94431.72;;;5.52;100.00
23166;BME280;11751;42.700;24.170;2022-11-15T07:45:31;94421.84;;;5.56;100.00
23166;BME280;11751;42.700;24.170;2022-11-15T07:47:59;94423.97;;;5.74;100.00
23166;BME280;11751;42.700;24.170;2022-11-15T07:50:25;94419.63;;;5.84;100.00
23166;BME280;11751;42.700;24.170;2022-11-15T07:52:55;94421.84;;;5.91;100.00
23166;BME280;11751;42.700;24.170;2022-11-15T07:55:21;94422.25;;;6.00;100.00
23166;BME280;11751;42.700;24.170;2022-11-15T07:57:47;94425.09;;;6.19;99.99
23166;BME280;11751;42.700;24.170;2022-11-15T08:00:13;94432.88;;;6.26;99.33
23166;BME280;11751;42.700;24.170;2022-11-15T08:02:39;94424.63;;;6.15;98.96
23166;BME280;11751;42.700;24.170;2022-11-15T08:05:05;94429.28;;;6.31;99.38
23166;BME280;11751;42.700;24.170;2022-11-15T08:07:31;94424.66;;;6.39;98.87
23166;BME280;11751;42.700;24.170;2022-11-15T08:09:57;94426.59;;;6.44;98.46
23166;BME280;11751;42.700;24.170;2022-11-15T08:12:23;94430.75;;;6.32;99.20
23166;BME280;11751;42.700;24.170;2022-11-15T08:14:49;94434.25;;;6.38;99.06
23166;BME280;11751;42.700;24.170;2022-11-15T08:17:14;94427.44;;;6.57;98.71
23166;BME280;11751;42.700;24.170;2022-11-15T08:19:40;94423.69;;;6.55;98.76
23166;BME280;11751;42.700;24.170;2022-11-15T08:22:05;94424.84;;;6.65;98.22
23166;BME280;11751;42.700;24.170;2022-11-15T08:24:31;94423.56;;;6.66;98.28
23166;BME280;11751;42.700;24.170;2022-11-15T08:26:56;94429.16;;;6.84;97.45
23166;BME280;11751;42.700;24.170;2022-11-15T08:29:22;94427.72;;;6.78;96.08
23166;BME280;11751;42.700;24.170;2022-11-15T08:31:47;94423.38;;;6.82;95.84
23166;BME280;11751;42.700;24.170;2022-11-15T08:34:12;94424.03;;;6.70;96.44
23166;BME280;11751;42.700;24.170;2022-11-15T08:36:38;94424.16;;;6.59;97.44
23166;BME280;11751;42.700;24.170;2022-11-15T08:39:03;94416.44;;;6.70;96.86
23166;BME280;11751;42.700;24.170;2022-11-15T08:41:32;94423.34;;;6.64;97.63
23166;BME280;11751;42.700;24.170;2022-11-15T08:43:58;94425.91;;;6.80;97.41
23166;BME280;11751;42.700;24.170;2022-11-15T08:46:23;94423.38;;;7.00;96.93
23166;BME280;11751;42.700;24.170;2022-11-15T08:48:49;94420.81;;;7.02;96.32
23166;BME280;11751;42.700;24.170;2022-11-15T08:51:14;94424.31;;;7.08;95.65
23166;BME280;11751;42.700;24.170;2022-11-15T08:53:40;94412.63;;;7.10;95.67
23166;BME280;11751;42.700;24.170;2022-11-15T08:56:11;94415.25;;;7.02;95.69
23166;BME280;11751;42.700;24.170;2022-11-15T08:58:37;94407.28;;;7.12;94.96
23166;BME280;11751;42.700;24.170;2022-11-15T09:01:04;94403.53;;;7.09;94.78
23166;BME280;11751;42.700;24.170;2022-11-15T09:03:29;94400.66;;;6.96;95.77
23166;BME280;11751;42.700;24.170;2022-11-15T09:05:59;94396.22;;;7.06;95.90
23166;BME280;11751;42.700;24.170;2022-11-15T09:08:30;94385.31;;;7.08;95.52
23166;BME280;11751;42.700;24.170;2022-11-15T09:10:56;94393.28;;;7.17;95.22
23166;BME280;11751;42.700;24.170;2022-11-15T09:13:21;94387.09;;;7.24;94.74
23166;BME280;11751;42.700;24.170;2022-11-15T09:15:47;94382.09;;;7.36;94.40
23166;BME280;11751;42.700;24.170;2022-11-15T09:18:12;94378.41;;;7.46;94.62
23166;BME280;11751;42.700;24.170;2022-11-15T09:20:38;94379.38;;;7.49;93.63
23166;BME280;11751;42.700;24.170;2022-11-15T09:23:04;94375.22;;;7.55;93.18
23166;BME280;11751;42.700;24.170;2022-11-15T09:25:30;94366.00;;;7.60;92.70
23166;BME280;11751;42.700;24.170;2022-11-15T09:27:56;94365.38;;;7.54;93.21
23166;BME280;11751;42.700;24.170;2022-11-15T09:30:23;94355.09;;;7.62;93.08
23166;BME280;11751;42.700;24.170;2022-11-15T09:32:49;94363.53;;;7.25;93.49
23166;BME280;11751;42.700;24.170;2022-11-15T09:35:14;94357.13;;;7.30;94.33
23166;BME280;11751;42.700;24.170;2022-11-15T09:37:40;94359.09;;;7.35;94.67
23166;BME280;11751;42.700;24.170;2022-11-15T09:40:09;94358.22;;;7.40;94.76
23166;BME280;11751;42.700;24.170;2022-11-15T09:50:50;94349.44;;;7.36;95.42
23166;BME280;11751;42.700;24.170;2022-11-15T09:56:05;94348.81;;;7.43;95.25
23166;BME280;11751;42.700;24.170;2022-11-15T09:58:39;94340.25;;;7.41;94.27
23166;BME280;11751;42.700;24.170;2022-11-15T10:01:22;94341.59;;;7.03;95.33
23166;BME280;11751;42.700;24.170;2022-11-15T10:03:51;94337.91;;;6.95;96.59
23166;BME280;11751;42.700;24.170;2022-11-15T10:06:23;94336.00;;;7.22;96.04
23166;BME280;11751;42.700;24.170;2022-11-15T10:09:04;94342.03;;;7.57;94.83
23166;BME280;11751;42.700;24.170;2022-11-15T10:11:35;94333.84;;;7.59;94.37
23166;BME280;11751;42.700;24.170;2022-11-15T10:14:05;94336.00;;;7.53;95.44
23166;BME280;11751;42.700;24.170;2022-11-15T10:22:46;94325.13;;;7.68;94.92
23166;BME280;11751;42.700;24.170;2022-11-15T10:27:40;94315.31;;;8.06;93.25
23166;BME280;11751;42.700;24.170;2022-11-15T10:30:13;94314.41;;;7.98;93.20
23166;BME280;11751;42.700;24.170;2022-11-15T10:32:40;94310.34;;;7.99;93.24
23166;BME280;11751;42.700;24.170;2022-11-15T10:35:29;94311.84;;;8.00;92.72
23166;BME280;11751;42.700;24.170;2022-11-15T10:38:09;94301.13;;;7.91;93.48
23166;BME280;11751;42.700;24.170;2022-11-15T10:40:35;94298.88;;;7.89;94.00
23166;BME280;11751;42.700;24.170;2022-11-15T10:43:19;94291.38;;;7.97;93.14
23166;BME280;11751;42.700;24.170;2022-11-15T10:45:45;94284.75;;;7.43;94.43
23166;BME280;11751;42.700;24.170;2022-11-15T10:50:36;94274.50;;;7.64;94.79
23166;BME280;11751;42.700;24.170;2022-11-15T10:53:02;94275.38;;;7.72;94.17
23166;BME280;11751;42.700;24.170;2022-11-15T10:55:30;94269.81;;;7.98;93.29
23166;BME280;11751;42.700;24.170;2022-11-15T10:58:41;94275.63;;;7.87;92.74
23166;BME280;11751;42.700;24.170;2022-11-15T11:01:16;94273.44;;;7.80;93.49
23166;BME280;11751;42.700;24.170;2022-11-15T11:03:43;94257.47;;;8.06;93.24
23166;BME280;11751;42.700;24.170;2022-11-15T11:06:15;94259.19;;;8.35;92.88
23166;BME280;11751;42.700;24.170;2022-11-15T11:08:58;94257.13;;;8.48;91.40
23166;BME280;11751;42.700;24.170;2022-11-15T11:11:25;94249.19;;;8.52;90.21
23166;BME280;11751;42.700;24.170;2022-11-15T11:13:51;94248.13;;;8.43;90.15
23166;BME280;11751;42.700;24.170;2022-11-15T11:19:16;94241.81;;;8.03;91.35
23166;BME280;11751;42.700;24.170;2022-11-15T11:22:06;94241.91;;;7.98;92.00
23166;BME280;11751;42.700;24.170;2022-11-15T11:24:46;94233.56;;;8.11;92.37
23166;BME280;11751;42.700;24.170;2022-11-15T11:37:55;94210.72;;;8.58;91.03
23166;BME280;11751;42.700;24.170;2022-11-15T11:40:37;94196.31;;;8.67;90.98
23166;BME280;11751;42.700;24.170;2022-11-15T11:48:42;94173.91;;;8.14;92.09
23166;BME280;11751;42.700;24.170;2022-11-15T11:54:01;94181.13;;;8.55;91.16
23166;BME280;11751;42.700;24.170;2022-11-15T11:56:31;94172.91;;;8.70;90.99
23166;BME280;11751;42.700;24.170;2022-11-15T11:59:06;94165.66;;;8.88;90.64
23166;BME280;11751;42.700;24.170;2022-11-15T12:01:40;94157.34;;;8.95;90.58
23166;BME280;11751;42.700;24.170;2022-11-15T12:04:20;94156.91;;;8.91;91.44
23166;BME280;11751;42.700;24.170;2022-11-15T12:06:50;94156.16;;;9.11;90.32
23166;BME280;11751;42.700;24.170;2022-11-15T12:09:22;94152.97;;;9.07;90.47
23166;BME280;11751;42.700;24.170;2022-11-15T12:14:57;94149.69;;;9.16;89.79
23166;BME280;11751;42.700;24.170;2022-11-15T12:17:17;94138.19;;;8.99;89.88
23166;BME280;11751;42.700;24.170;2022-11-15T12:19:45;94142.75;;;9.10;90.03
23166;BME280;11751;42.700;24.170;2022-11-15T12:25:00;94139.25;;;8.96;91.74
23166;BME280;11751;42.700;24.170;2022-11-15T12:30:19;94136.47;;;8.96;91.73
23166;BME280;11751;42.700;24.170;2022-11-15T12:37:54;94140.16;;;9.12;90.33
23166;BME280;11751;42.700;24.170;2022-11-15T13:49:00;94065.88;;;8.48;nan
23166;BME280;11751;42.700;24.170;2022-11-15T13:51:43;94091.00;;;8.48;nan
23166;BME280;11751;42.700;24.170;2022-11-15T13:56:41;94088.31;;;8.22;nan
23166;BME280;11751;42.700;24.170;2022-11-15T13:59:27;94087.78;;;8.23;nan
23166;BME280;11751;42.700;24.170;2022-11-15T14:01:58;94077.59;;;8.26;nan
23166;BME280;11751;42.700;24.170;2022-11-15T14:04:26;94086.56;;;8.32;nan
23166;BME280;11751;42.700;24.170;2022-11-15T14:06:57;94081.88;;;8.27;nan
23166;BME280;11751;42.700;24.170;2022-11-15T14:09:31;94083.91;;;8.26;nan
23166;BME280;11751;42.700;24.170;2022-11-15T14:12:01;94080.16;;;8.24;nan
23166;BME280;11751;42.700;24.170;2022-11-15T14:14:29;94075.75;;;8.28;nan
23166;BME280;11751;42.700;24.170;2022-11-15T14:16:59;94066.91;;;8.37;nan
23166;BME280;11751;42.700;24.170;2022-11-15T14:22:23;94070.84;;;8.42;nan
23166;BME280;11751;42.700;24.170;2022-11-15T14:25:25;94064.66;;;8.36;nan
23166;BME280;11751;42.700;24.170;2022-11-15T14:30:44;94059.88;;;8.23;nan
23166;BME280;11751;42.700;24.170;2022-11-15T14:35:58;94039.28;;;8.13;nan
23166;BME280;11751;42.700;24.170;2022-11-15T14:38:25;94052.53;;;8.00;nan
23166;BME280;11751;42.700;24.170;2022-11-15T14:40:50;94043.44;;;7.99;nan
23166;BME280;11751;42.700;24.170;2022-11-15T14:43:16;94052.84;;;8.09;nan
23166;BME280;11751;42.700;24.170;2022-11-15T14:45:42;94049.28;;;8.09;nan
23166;BME280;11751;42.700;24.170;2022-11-15T14:48:09;94045.88;;;8.03;nan
23166;BME280;11751;42.700;24.170;2022-11-15T14:50:35;94045.66;;;8.01;nan
23166;BME280;11751;42.700;24.170;2022-11-15T14:53:00;94039.03;;;8.04;nan
23166;BME280;11751;42.700;24.170;2022-11-15T14:55:28;94051.47;;;8.03;nan
23166;BME280;11751;42.700;24.170;2022-11-15T14:57:55;94047.59;;;8.06;nan
23166;BME280;11751;42.700;24.170;2022-11-15T15:00:21;94060.91;;;8.00;nan
23166;BME280;11751;42.700;24.170;2022-11-15T15:02:48;94060.03;;;8.05;nan
23166;BME280;11751;42.700;24.170;2022-11-15T15:05:19;94061.53;;;8.06;nan
23166;BME280;11751;42.700;24.170;2022-11-15T15:07:46;94059.09;;;8.02;nan
23166;BME280;11751;42.700;24.170;2022-11-15T15:10:12;94056.38;;;8.10;nan
23166;BME280;11751;42.700;24.170;2022-11-15T15:12:38;94062.31;;;7.93;nan
23166;BME280;11751;42.700;24.170;2022-11-15T15:15:05;94067.59;;;7.97;nan
23166;BME280;11751;42.700;24.170;2022-11-15T15:17:31;94060.06;;;7.92;nan
23166;BME280;11751;42.700;24.170;2022-11-15T15:19:56;94069.06;;;7.98;nan
23166;BME280;11751;42.700;24.170;2022-11-15T15:22:22;94062.00;;;7.97;nan
23166;BME280;11751;42.700;24.170;2022-11-15T15:24:51;94060.75;;;7.85;nan
23166;BME280;11751;42.700;24.170;2022-11-15T15:27:16;94066.19;;;7.90;nan
23166;BME280;11751;42.700;24.170;2022-11-15T15:29:42;94077.88;;;7.89;nan
23166;BME280;11751;42.700;24.170;2022-11-15T15:32:09;94063.22;;;7.75;nan
23166;BME280;11751;42.700;24.170;2022-11-15T15:34:36;94058.97;;;7.62;nan
23166;BME280;11751;42.700;24.170;2022-11-15T15:37:24;94060.97;;;7.74;nan
23166;BME280;11751;42.700;24.170;2022-11-15T15:39:55;94058.75;;;7.72;nan
23166;BME280;11751;42.700;24.170;2022-11-15T15:42:22;94054.78;;;7.68;nan
23166;BME280;11751;42.700;24.170;2022-11-15T15:44:49;94062.06;;;7.71;nan
23166;BME280;11751;42.700;24.170;2022-11-15T15:47:20;94059.69;;;7.75;nan
23166;BME280;11751;42.700;24.170;2022-11-15T15:49:46;94060.97;;;7.74;nan
23166;BME280;11751;42.700;24.170;2022-11-15T15:52:11;94056.84;;;7.55;nan
23166;BME280;11751;42.700;24.170;2022-11-15T15:54:37;94057.47;;;7.61;nan
23166;BME280;11751;42.700;24.170;2022-11-15T15:57:03;94063.56;;;7.59;nan
23166;BME280;11751;42.700;24.170;2022-11-15T15:59:30;94059.34;;;7.32;nan
23166;BME280;11751;42.700;24.170;2022-11-15T16:01:55;94058.47;;;7.24;nan
23166;BME280;11751;42.700;24.170;2022-11-15T16:04:21;94057.84;;;7.05;nan
23166;BME280;11751;42.700;24.170;2022-11-15T16:06:47;94061.91;;;7.04;nan
23166;BME280;11751;42.700;24.170;2022-11-15T16:09:17;94054.41;;;7.12;nan
23166;BME280;11751;42.700;24.170;2022-11-15T16:11:45;94054.97;;;7.11;nan
23166;BME280;11751;42.700;24.170;2022-11-15T16:14:11;94060.53;;;7.11;nan